.
WxDataArchive / Data Records for 2015-11-09
2015-11-08 November 2015 2015-11-10

Data Records for Monday, 09 November 2015

Time	Temp	Chill	HIndex	Humid	Dewpt	 Wind 	HiWind	WindDir	Rain 	Barom
-----	----	-----	------	-----	-----	------	------	-------	-----	-----
00:00	32.4	32.4	32.4	90	29.8	0	0	---	0.00	30.333 
00:05	32.2	32.2	32.2	90	29.6	0	0	---	0.00	30.333 
00:10	32.1	32.1	32.1	90	29.5	0	0	---	0.00	30.333 
00:15	31.9	31.9	31.9	90	29.3	0	0	---	0.00	30.329 
00:20	31.8	31.8	31.8	90	29.2	0	0	---	0.00	30.329 
00:25	31.8	31.8	31.8	90	29.2	0	0	---	0.00	30.329 
00:30	31.6	31.6	31.6	90	29.0	0	0	---	0.00	30.328 
00:35	31.5	31.5	31.5	90	28.9	0	0	---	0.00	30.328 
00:40	31.3	31.3	31.3	90	28.7	0	0	---	0.00	30.328 
00:45	31.2	31.2	31.2	90	28.6	0	0	---	0.00	30.327 
00:50	31.2	31.2	31.2	90	28.6	0	0	---	0.00	30.327 
00:55	31.0	31.0	31.0	90	28.4	0	0	---	0.00	30.327 
01:00	31.0	31.0	31.0	91	28.7	0	0	---	0.00	30.325 
01:05	30.9	30.9	30.9	91	28.6	0	0	---	0.00	30.325 
01:10	30.9	30.9	30.9	91	28.6	0	0	---	0.00	30.325 
01:15	30.7	30.7	30.7	91	28.4	0	0	---	0.00	30.322 
01:20	30.7	30.7	30.7	91	28.4	0	0	---	0.00	30.322 
01:25	30.6	30.6	30.6	91	28.3	0	0	---	0.00	30.322 
01:30	30.6	30.6	30.6	91	28.3	0	0	---	0.00	30.322 
01:35	30.4	30.4	30.4	91	28.1	0	0	---	0.00	30.322 
01:40	30.4	30.4	30.4	91	28.1	0	0	---	0.00	30.322 
01:45	30.3	30.3	30.3	91	28.0	0	0	---	0.00	30.324 
01:50	30.3	30.3	30.3	91	28.0	0	0	---	0.00	30.324 
01:55	30.3	30.3	30.3	91	28.0	0	0	---	0.00	30.324 
02:00	30.1	30.1	30.1	91	27.8	0	0	---	0.00	30.323 
02:05	30.1	30.1	30.1	91	27.8	0	0	---	0.00	30.323 
02:10	30.0	30.0	30.0	91	27.7	0	0	---	0.00	30.323 
02:15	29.8	29.8	29.8	91	27.5	0	0	---	0.00	30.320 
02:20	29.8	29.8	29.8	91	27.5	0	0	---	0.00	30.320 
02:25	29.7	29.7	29.7	91	27.4	0	0	---	0.00	30.320 
02:30	29.7	29.7	29.7	91	27.4	0	0	---	0.00	30.320 
02:35	29.7	29.7	29.7	91	27.4	0	0	---	0.00	30.320 
02:40	29.5	29.5	29.5	91	27.2	0	0	---	0.00	30.320 
02:45	29.5	29.5	29.5	92	27.5	0	0	---	0.00	30.317 
02:50	29.5	29.5	29.5	92	27.5	0	0	---	0.00	30.317 
02:55	29.5	29.5	29.5	92	27.5	0	0	---	0.00	30.317 
03:00	29.4	29.4	29.4	92	27.4	0	0	---	0.00	30.315 
03:05	29.4	29.4	29.4	92	27.4	0	0	---	0.00	30.315 
03:10	29.3	29.3	29.3	92	27.3	0	0	---	0.00	30.315 
03:15	29.1	29.1	29.1	92	27.1	0	0	---	0.00	30.310 
03:20	29.1	29.1	29.1	92	27.1	0	0	---	0.00	30.310 
03:25	29.1	29.1	29.1	92	27.1	0	0	---	0.00	30.310 
03:30	29.0	29.0	29.0	92	27.0	0	0	---	0.00	30.307 
03:35	29.0	29.0	29.0	92	27.0	0	0	---	0.00	30.307 
03:40	29.0	29.0	29.0	92	27.0	0	0	---	0.00	30.307 
03:45	29.0	29.0	29.0	92	27.0	0	0	---	0.00	30.303 
03:50	29.0	29.0	29.0	92	27.0	0	0	---	0.00	30.303 
03:55	29.1	29.1	29.1	92	27.1	0	0	---	0.00	30.303 
04:00	29.1	29.1	29.1	92	27.1	0	0	---	0.00	30.299 
04:05	29.1	29.1	29.1	92	27.1	0	0	---	0.00	30.299 
04:10	29.0	29.0	29.0	92	27.0	0	0	---	0.00	30.299 
04:15	29.0	29.0	29.0	92	27.0	0	0	---	0.00	30.296 
04:20	29.0	29.0	29.0	92	27.0	0	0	---	0.00	30.296 
04:25	28.8	28.8	28.8	92	26.8	0	0	---	0.00	30.296 
04:30	28.8	28.8	28.8	92	26.8	0	0	---	0.00	30.300 
04:35	28.7	28.7	28.7	92	26.7	0	0	---	0.00	30.300 
04:40	28.7	28.7	28.7	92	26.7	0	0	---	0.00	30.300 
04:45	28.5	28.5	28.5	92	26.5	0	0	---	0.00	30.301 
04:50	28.4	28.4	28.4	92	26.4	0	0	---	0.00	30.301 
04:55	28.4	28.4	28.4	92	26.4	0	0	---	0.00	30.301 
05:00	28.4	28.4	28.4	92	26.4	0	0	---	0.00	30.302 
05:05	28.2	28.2	28.2	92	26.2	0	0	---	0.00	30.302 
05:10	28.2	28.2	28.2	92	26.2	0	0	---	0.00	30.302 
05:15	28.2	28.2	28.2	92	26.2	0	0	---	0.00	30.304 
05:20	28.1	28.1	28.1	92	26.1	0	0	---	0.00	30.304 
05:25	28.1	28.1	28.1	92	26.1	0	0	---	0.00	30.304 
05:30	27.9	27.9	27.9	92	25.9	0	0	---	0.00	30.303 
05:35	27.9	27.9	27.9	92	25.9	0	0	---	0.00	30.303 
05:40	27.9	27.9	27.9	92	25.9	0	0	---	0.00	30.303 
05:45	27.8	27.8	27.8	92	25.8	0	0	---	0.00	30.306 
05:50	27.8	27.8	27.8	92	25.8	0	0	---	0.00	30.306 
05:55	27.6	27.6	27.6	92	25.6	0	0	---	0.00	30.306 
06:00	27.6	27.6	27.6	92	25.6	0	0	---	0.00	30.305 
06:05	27.5	27.5	27.5	92	25.5	0	0	---	0.00	30.305 
06:10	27.5	27.5	27.5	92	25.5	0	0	---	0.00	30.305 
06:15	27.5	27.5	27.5	92	25.5	0	0	---	0.00	30.310 
06:20	27.3	27.3	27.3	92	25.3	0	0	---	0.00	30.310 
06:25	27.2	27.2	27.2	92	25.2	0	0	---	0.00	30.310 
06:30	27.2	27.2	27.2	92	25.2	0	0	---	0.00	30.315 
06:35	27.2	27.2	27.2	92	25.2	0	0	---	0.00	30.315 
06:40	27.2	27.2	27.2	92	25.2	0	0	---	0.00	30.315 
06:45	27.2	27.2	27.2	92	25.2	0	0	---	0.00	30.311 
06:50	27.0	27.0	27.0	92	25.0	0	0	---	0.00	30.311 
06:55	27.0	27.0	27.0	92	25.0	0	0	---	0.00	30.311 
07:00	26.9	26.9	26.9	92	24.9	0	0	---	0.00	30.314 
07:05	26.9	26.9	26.9	92	24.9	0	0	---	0.00	30.314 
07:10	26.9	26.9	26.9	93	25.2	0	0	---	0.00	30.314 
07:15	27.0	27.0	27.0	93	25.3	0	0	---	0.00	30.321 
07:20	27.0	27.0	27.0	93	25.3	0	0	---	0.00	30.321 
07:25	27.0	27.0	27.0	93	25.3	0	0	---	0.00	30.321 
07:30	27.0	27.0	27.0	92	25.0	0	0	---	0.00	30.322 
07:35	26.9	26.9	26.9	92	24.9	0	0	---	0.00	30.322 
07:40	26.9	26.9	26.9	92	24.9	0	0	---	0.00	30.322 
07:45	27.0	27.0	27.0	93	25.3	0	0	---	0.00	30.324 
07:50	27.0	27.0	27.0	93	25.3	0	0	---	0.00	30.324 
07:55	27.2	27.2	27.2	93	25.4	0	0	---	0.00	30.324 
08:00	27.3	27.3	27.3	93	25.5	0	0	---	0.00	30.326 
08:05	27.6	27.6	27.6	93	25.8	0	0	---	0.00	30.326 
08:10	28.2	28.2	28.2	93	26.4	0	0	---	0.00	30.326 
08:15	28.8	28.8	28.8	94	27.3	0	0	---	0.00	30.333 
08:20	29.5	29.5	29.5	94	28.0	0	0	---	0.00	30.333 
08:25	30.4	30.4	30.4	94	28.9	0	0	---	0.00	30.333 
08:30	31.2	31.2	31.2	94	29.7	0	0	---	0.00	30.331 
08:35	32.7	32.7	32.7	95	31.4	0	0	---	0.00	30.331 
08:40	33.8	33.8	33.8	95	32.5	0	1	158	0.00	30.331 
08:45	34.6	34.6	34.6	94	33.1	0	1	158	0.00	30.332 
08:50	35.2	35.2	35.2	93	33.4	0	1	158	0.00	30.332 
08:55	35.8	35.8	35.8	92	33.7	0	2	158	0.00	30.332 
09:00	36.2	36.2	36.2	89	33.3	0	3	158	0.00	30.327 
09:05	36.5	36.5	36.5	86	32.7	1	3	158	0.00	30.327 
09:10	36.9	36.9	36.9	84	32.5	0	2	158	0.00	30.327 
09:15	37.5	37.5	37.5	83	32.8	1	3	158	0.00	30.329 
09:20	38.0	38.0	38.0	81	32.7	0	1	158	0.00	30.329 
09:25	38.6	38.6	38.6	79	32.7	0	3	158	0.00	30.329 
09:30	39.1	39.1	39.1	80	33.5	0	1	158	0.00	30.317 
09:35	39.2	39.2	39.2	79	33.2	0	1	158	0.00	30.317 
09:40	39.5	39.5	39.5	78	33.2	0	2	158	0.00	30.317 
09:45	39.6	39.6	39.6	77	33.0	0	2	158	0.00	30.313 
09:50	40.1	40.1	40.1	76	33.2	0	2	158	0.00	30.313 
09:55	40.5	40.5	40.5	76	33.5	0	2	158	0.00	30.313 
10:00	41.1	41.1	41.1	75	33.8	0	1	158	0.00	30.311 
10:05	41.8	41.8	41.8	75	34.5	0	1	158	0.00	30.311 
10:10	42.3	42.3	42.3	74	34.6	0	1	158	0.00	30.311 
10:15	42.8	42.8	42.8	70	33.7	0	2	158	0.00	30.307 
10:20	43.2	43.2	43.2	69	33.7	0	2	158	0.00	30.307 
10:25	43.6	43.6	43.6	68	33.7	0	3	158	0.00	30.307 
10:30	44.1	44.1	44.1	66	33.5	0	3	158	0.00	30.302 
10:35	44.5	44.5	44.5	65	33.5	1	4	112	0.00	30.302 
10:40	44.6	44.6	44.6	63	32.8	0	2	112	0.00	30.302 
10:45	45.1	45.1	45.1	62	32.9	1	3	112	0.00	30.300 
10:50	45.5	45.5	45.5	61	32.8	1	4	112	0.00	30.300 
10:55	45.8	45.8	45.8	60	32.7	0	2	112	0.00	30.300 
11:00	46.4	46.4	46.4	61	33.7	0	3	112	0.00	30.293 
11:05	46.8	46.8	46.8	60	33.7	1	4	112	0.00	30.293 
11:10	47.1	47.1	47.1	58	33.1	1	4	90	0.00	30.293 
11:15	47.4	47.4	47.4	58	33.4	1	3	90	0.00	30.282 
11:20	47.9	47.9	47.9	56	33.0	1	3	90	0.00	30.282 
11:25	48.5	48.5	48.5	58	34.4	0	2	90	0.00	30.282 
11:30	48.8	48.8	48.8	55	33.4	1	5	112	0.00	30.277 
11:35	48.9	48.9	48.9	54	33.0	1	4	112	0.00	30.277 
11:40	49.4	49.4	49.4	54	33.5	1	5	112	0.00	30.277 
11:45	49.6	49.6	49.6	52	32.7	1	4	112	0.00	30.262 
11:50	50.1	50.1	50.1	52	33.2	1	5	112	0.00	30.262 
11:55	50.4	50.4	50.4	51	33.0	0	2	112	0.00	30.262 
12:00	50.7	50.7	50.7	50	32.7	1	4	112	0.00	30.261 
12:05	50.8	50.8	50.8	48	31.8	1	3	112	0.00	30.261 
12:10	51.0	51.0	51.0	47	31.5	0	4	112	0.00	30.261 
12:15	51.3	51.3	51.3	45	30.7	1	4	112	0.00	30.258 
12:20	51.4	51.4	51.4	46	31.3	1	3	112	0.00	30.258 
12:25	51.6	51.6	51.6	42	29.3	1	4	90	0.00	30.258 
12:30	51.6	51.6	51.6	43	29.8	1	6	90	0.00	30.245 
12:35	51.7	51.7	51.7	44	30.5	2	6	90	0.00	30.245 
12:40	51.9	51.9	51.9	42	29.5	1	4	90	0.00	30.245 
12:45	51.9	51.9	51.9	43	30.1	0	3	112	0.00	30.242 
12:50	52.0	52.0	52.0	44	30.8	0	3	135	0.00	30.242 
12:55	52.5	52.5	52.5	40	28.9	2	6	90	0.00	30.242 
13:00	52.6	52.6	52.6	40	29.0	2	7	112	0.00	30.228 
13:05	52.6	52.6	52.6	39	28.4	2	6	112	0.00	30.228 
13:10	52.8	52.8	52.8	39	28.5	2	5	112	0.00	30.228 
13:15	53.1	53.1	53.1	38	28.2	3	7	90	0.00	30.227 
13:20	53.1	53.1	53.1	38	28.2	1	5	90	0.00	30.227 
13:25	53.2	53.2	53.2	39	28.9	2	5	90	0.00	30.227 
13:30	53.2	53.2	53.2	39	28.9	1	5	90	0.00	30.221 
13:35	53.2	53.2	53.2	39	28.9	1	5	90	0.00	30.221 
13:40	53.2	53.2	53.2	39	28.9	0	2	90	0.00	30.221 
13:45	53.3	53.3	53.3	38	28.3	1	4	90	0.00	30.216 
13:50	53.5	53.5	53.5	38	28.5	2	4	90	0.00	30.216 
13:55	53.6	53.6	53.6	38	28.6	3	6	90	0.00	30.216 
14:00	53.6	53.6	53.6	37	28.0	1	3	112	0.00	30.208 
14:05	53.8	53.8	53.8	38	28.8	2	6	90	0.00	30.208 
14:10	53.9	53.9	53.9	38	28.9	1	4	90	0.00	30.208 
14:15	54.1	54.1	54.1	37	28.4	2	5	90	0.00	30.199 
14:20	54.1	54.1	54.1	36	27.7	1	4	90	0.00	30.199 
14:25	54.1	54.1	54.1	36	27.7	2	7	90	0.00	30.199 
14:30	54.2	54.2	54.2	37	28.5	2	4	90	0.00	30.197 
14:35	54.2	54.2	54.2	38	29.2	2	6	112	0.00	30.197 
14:40	54.2	54.2	54.2	37	28.5	1	3	90	0.00	30.197 
14:45	54.4	54.4	54.4	37	28.7	1	5	90	0.00	30.193 
14:50	54.5	54.5	54.5	37	28.8	2	5	90	0.00	30.193 
14:55	54.5	54.5	54.5	37	28.8	2	5	112	0.00	30.193 
15:00	54.7	54.7	54.7	37	28.9	1	3	112	0.00	30.180 
15:05	54.7	54.7	54.7	36	28.3	2	5	112	0.00	30.180 
15:10	54.8	54.8	54.8	37	29.0	1	4	112	0.00	30.180 
15:15	54.7	54.7	54.7	38	29.6	1	5	112	0.00	30.180 
15:20	54.7	54.7	54.7	36	28.3	1	5	112	0.00	30.180 
15:25	54.7	54.7	54.7	37	28.9	1	3	112	0.00	30.180 
15:30	54.7	54.7	54.7	38	29.6	1	3	112	0.00	30.181 
15:35	54.5	54.5	54.5	36	28.1	0	2	135	0.00	30.181 
15:40	54.4	54.4	54.4	38	29.3	1	3	135	0.00	30.181 
15:45	54.2	54.2	54.2	38	29.2	1	4	135	0.00	30.180 
15:50	54.1	54.1	54.1	39	29.7	0	2	135	0.00	30.180 
15:55	53.8	53.8	53.8	39	29.4	1	3	135	0.00	30.180 
16:00	53.6	53.6	53.6	39	29.3	1	2	112	0.00	30.171 
16:05	53.5	53.5	53.5	42	31.0	1	4	112	0.00	30.171 
16:10	53.3	53.3	53.3	41	30.2	1	3	112	0.00	30.171 
16:15	53.3	53.3	53.3	41	30.2	1	3	112	0.00	30.174 
16:20	53.3	53.3	53.3	42	30.8	0	2	112	0.00	30.174 
16:25	53.2	53.2	53.2	42	30.7	1	3	112	0.00	30.174 
16:30	53.2	53.2	53.2	43	31.3	0	2	112	0.00	30.169 
16:35	53.2	53.2	53.2	44	31.9	0	3	112	0.00	30.169 
16:40	53.3	53.3	53.3	44	31.9	0	2	112	0.00	30.169 
16:45	53.5	53.5	53.5	41	30.4	1	3	112	0.00	30.175 
16:50	53.8	53.8	53.8	42	31.3	0	2	112	0.00	30.175 
16:55	53.8	53.8	53.8	41	30.7	0	2	112	0.00	30.175 
17:00	53.6	53.6	53.6	41	30.5	1	2	112	0.00	30.173 
17:05	53.5	53.5	53.5	40	29.8	0	2	112	0.00	30.173 
17:10	53.3	53.3	53.3	41	30.2	0	2	112	0.00	30.173 
17:15	53.1	53.1	53.1	41	30.0	0	2	112	0.00	30.169 
17:20	52.9	52.9	52.9	42	30.4	0	1	112	0.00	30.169 
17:25	52.8	52.8	52.8	43	30.9	0	2	112	0.00	30.169 
17:30	52.5	52.5	52.5	45	31.8	0	1	112	0.00	30.166 
17:35	52.0	52.0	52.0	46	31.9	0	1	112	0.00	30.166 
17:40	51.7	51.7	51.7	46	31.6	0	1	112	0.00	30.166 
17:45	51.6	51.6	51.6	47	32.0	0	1	112	0.00	30.172 
17:50	51.3	51.3	51.3	47	31.8	0	1	112	0.00	30.172 
17:55	51.1	51.1	51.1	48	32.1	0	0	---	0.00	30.172 
18:00	51.0	51.0	51.0	49	32.5	0	0	---	0.00	30.168 
18:05	50.8	50.8	50.8	49	32.3	0	1	112	0.00	30.168 
18:10	50.5	50.5	50.5	49	32.1	0	0	---	0.00	30.168 
18:15	50.5	50.5	50.5	49	32.1	0	0	---	0.00	30.167 
18:20	50.4	50.4	50.4	49	32.0	0	1	112	0.00	30.167 
18:25	50.2	50.2	50.2	49	31.8	0	0	---	0.00	30.167 
18:30	50.2	50.2	50.2	49	31.8	0	1	112	0.00	30.169 
18:35	50.2	50.2	50.2	49	31.8	0	1	112	0.00	30.169 
18:40	50.2	50.2	50.2	50	32.3	0	1	112	0.00	30.169 
18:45	50.2	50.2	50.2	50	32.3	0	1	112	0.00	30.170 
18:50	50.1	50.1	50.1	50	32.2	0	1	112	0.00	30.170 
18:55	50.1	50.1	50.1	50	32.2	0	0	---	0.00	30.170 
19:00	50.1	50.1	50.1	50	32.2	0	0	---	0.00	30.184 
19:05	49.9	49.9	49.9	50	32.0	0	1	112	0.00	30.184 
19:10	49.9	49.9	49.9	51	32.5	0	0	---	0.00	30.184 
19:15	49.8	49.8	49.8	51	32.4	0	0	---	0.00	30.172 
19:20	49.6	49.6	49.6	52	32.7	0	1	112	0.00	30.172 
19:25	49.6	49.6	49.6	52	32.7	0	1	112	0.00	30.172 
19:30	49.6	49.6	49.6	51	32.2	0	2	112	0.00	30.181 
19:35	49.6	49.6	49.6	51	32.2	0	1	112	0.00	30.181 
19:40	49.6	49.6	49.6	51	32.2	0	1	112	0.00	30.181 
19:45	49.6	49.6	49.6	52	32.7	0	0	---	0.00	30.178 
19:50	49.5	49.5	49.5	53	33.1	0	0	---	0.00	30.178 
19:55	49.5	49.5	49.5	55	34.0	0	0	---	0.00	30.178 
20:00	49.4	49.4	49.4	57	34.8	0	0	---	0.00	30.181 
20:05	49.2	49.2	49.2	58	35.1	0	0	---	0.00	30.181 
20:10	49.1	49.1	49.1	59	35.4	0	0	---	0.00	30.181 
20:15	48.9	48.9	48.9	62	36.5	0	0	---	0.00	30.170 
20:20	48.6	48.6	48.6	65	37.4	0	0	---	0.00	30.170 
20:25	48.2	48.2	48.2	66	37.4	0	0	---	0.00	30.170 
20:30	48.0	48.0	48.0	67	37.6	0	0	---	0.00	30.167 
20:35	47.7	47.7	47.7	69	38.0	0	0	---	0.00	30.167 
20:40	47.6	47.6	47.6	70	38.3	0	0	---	0.00	30.167 
20:45	47.4	47.4	47.4	71	38.5	0	0	---	0.00	30.163 
20:50	47.1	47.1	47.1	71	38.2	0	0	---	0.00	30.163 
20:55	47.1	47.1	47.1	72	38.5	0	0	---	0.00	30.163 
21:00	47.1	47.1	47.1	74	39.2	0	0	---	0.01	30.164 
21:05	47.0	47.0	47.0	76	39.8	0	0	---	0.00	30.164 
21:10	47.0	47.0	47.0	77	40.2	0	0	---	0.00	30.164 
21:15	46.8	46.8	46.8	77	40.0	0	0	---	0.00	30.159 
21:20	46.8	46.8	46.8	77	40.0	0	0	---	0.00	30.159 
21:25	46.7	46.7	46.7	78	40.2	0	0	---	0.00	30.159 
21:30	46.7	46.7	46.7	79	40.5	0	0	---	0.00	30.149 
21:35	46.7	46.7	46.7	79	40.5	0	0	---	0.00	30.149 
21:40	46.5	46.5	46.5	80	40.7	0	0	---	0.00	30.149 
21:45	46.5	46.5	46.5	79	40.3	0	0	---	0.01	30.143 
21:50	46.5	46.5	46.5	80	40.7	0	1	112	0.00	30.143 
21:55	46.2	46.2	46.2	79	40.1	0	1	112	0.00	30.143 
22:00	46.1	46.1	46.1	79	40.0	0	0	---	0.00	30.143 
22:05	46.0	46.0	46.0	79	39.9	0	0	---	0.00	30.143 
22:10	45.8	45.8	45.8	78	39.3	0	0	---	0.01	30.143 
22:15	45.7	45.7	45.7	78	39.2	0	1	112	0.00	30.129 
22:20	45.7	45.7	45.7	78	39.2	0	0	---	0.00	30.129 
22:25	45.5	45.5	45.5	78	39.0	0	0	---	0.00	30.129 
22:30	45.4	45.4	45.4	79	39.3	0	1	112	0.00	30.125 
22:35	45.4	45.4	45.4	81	39.9	0	1	112	0.00	30.125 
22:40	45.4	45.4	45.4	81	39.9	0	1	112	0.00	30.125 
22:45	45.2	45.2	45.2	82	40.0	0	1	112	0.00	30.124 
22:50	45.2	45.2	45.2	82	40.0	0	0	---	0.00	30.124 
22:55	45.2	45.2	45.2	83	40.3	0	1	112	0.00	30.124 
23:00	45.1	45.1	45.1	83	40.3	0	2	112	0.00	30.120 
23:05	45.1	45.1	45.1	83	40.3	0	1	112	0.01	30.120 
23:10	44.9	44.9	44.9	84	40.4	0	2	112	0.00	30.120 
23:15	44.9	44.9	44.9	84	40.4	0	1	112	0.00	30.110 
23:20	44.9	44.9	44.9	84	40.4	0	0	---	0.00	30.110 
23:25	44.8	44.8	44.8	85	40.6	0	0	---	0.01	30.110 
23:30	44.8	44.8	44.8	85	40.6	0	0	---	0.00	30.116 
23:35	44.8	44.8	44.8	86	40.9	0	0	---	0.01	30.116 
23:40	44.8	44.8	44.8	87	41.2	0	1	112	0.00	30.116 
23:45	44.6	44.6	44.6	87	41.0	0	1	112	0.01	30.113 
23:50	44.5	44.5	44.5	88	41.2	0	0	---	0.01	30.113 
23:55	44.5	44.5	44.5	88	41.2	0	1	112	0.01	30.113 

CoCoRaHS
IN-AL-39
A2 Web Hosting
Creative Commons License
GoDaddy
search engine by freefind advanced

loaded 2018-11-20 15:36:56 • last modified 2010-11-18 10:43:29
Privacy PolicyDisclaimer
• wx.awcolley.com is powered by PmWiki v.2002016 •
• all content (unless otherwise noted) © 2018 A W Colley